createdAt,value
2023-03-26T00:03:21.332Z,8.50
2023-03-26T00:07:48.101Z,8.40
2023-03-26T00:12:15.825Z,8.40
2023-03-26T00:16:44.138Z,8.40
2023-03-26T00:21:09.930Z,8.40
2023-03-26T00:25:35.249Z,8.40
2023-03-26T00:30:01.103Z,8.40
2023-03-26T00:34:28.897Z,8.30
2023-03-26T00:38:55.556Z,8.30
2023-03-26T00:43:21.788Z,8.30
2023-03-26T00:47:46.852Z,8.20
2023-03-26T00:52:14.459Z,8.20
2023-03-26T00:56:40.163Z,8.20
2023-03-26T01:01:08.341Z,8.10
2023-03-26T01:05:53.020Z,8.20
2023-03-26T01:10:22.761Z,8.10
2023-03-26T01:14:50.610Z,8.00
2023-03-26T01:19:24.878Z,8.00
2023-03-26T01:24:00.257Z,8.00
2023-03-26T01:28:29.944Z,8.00
2023-03-26T01:33:07.894Z,8.00
2023-03-26T01:37:43.633Z,8.10
2023-03-26T01:42:16.630Z,8.10
2023-03-26T01:46:44.418Z,8.10
2023-03-26T01:51:11.801Z,8.10
2023-03-26T01:55:50.737Z,8.10
2023-03-26T02:00:24.493Z,8.10
2023-03-26T02:04:54.594Z,8.10
2023-03-26T02:09:26.676Z,8.10
2023-03-26T02:13:53.294Z,8.10
2023-03-26T02:18:24.381Z,8.00
2023-03-26T02:22:49.730Z,8.00
2023-03-26T02:27:18.573Z,7.90
2023-03-26T02:31:44.361Z,7.90
2023-03-26T02:36:14.302Z,7.80
2023-03-26T02:40:41.459Z,7.80
2023-03-26T02:45:09.137Z,7.70
2023-03-26T02:49:52.955Z,7.60
2023-03-26T02:54:37.185Z,7.50
2023-03-26T02:59:22.335Z,7.50
2023-03-26T03:04:01.702Z,7.50
2023-03-26T03:08:34.352Z,7.40
2023-03-26T03:13:17.074Z,7.40
2023-03-26T03:17:42.066Z,7.40
2023-03-26T03:22:07.728Z,7.50
2023-03-26T03:26:34.546Z,7.50
2023-03-26T03:31:18.878Z,7.50
2023-03-26T03:35:46.107Z,7.40
2023-03-26T03:40:12.365Z,7.30
2023-03-26T03:44:37.995Z,7.30
2023-03-26T03:49:12.619Z,7.20
2023-03-26T03:53:40.763Z,7.20
2023-03-26T03:58:09.570Z,7.30
2023-03-26T04:02:35.764Z,7.30
2023-03-26T04:07:05.506Z,7.30
2023-03-26T04:11:58.992Z,7.30
2023-03-26T04:16:44.200Z,7.30
2023-03-26T04:21:09.215Z,7.20
2023-03-26T04:25:36.827Z,7.20
2023-03-26T04:30:12.784Z,7.10
2023-03-26T04:34:37.307Z,7.10
2023-03-26T04:39:13.492Z,7.10
2023-03-26T04:43:57.872Z,7.10
2023-03-26T04:48:34.736Z,7.10
2023-03-26T04:52:59.526Z,7.10
2023-03-26T04:57:47.194Z,7.10
2023-03-26T05:02:34.701Z,7.00
2023-03-26T05:07:01.493Z,7.00
2023-03-26T05:11:38.462Z,7.00
2023-03-26T05:16:04.786Z,7.00
2023-03-26T05:20:41.284Z,7.10
2023-03-26T05:25:10.547Z,7.50
2023-03-26T05:29:37.172Z,7.70
2023-03-26T05:34:03.770Z,7.80
2023-03-26T05:38:31.140Z,7.90
2023-03-26T05:42:58.093Z,8.00
2023-03-26T05:47:36.592Z,8.30
2023-03-26T05:52:02.498Z,9.10
2023-03-26T05:56:57.028Z,10.10
2023-03-26T06:01:43.188Z,10.70
2023-03-26T06:06:16.829Z,10.50
2023-03-26T06:10:52.004Z,10.10
2023-03-26T06:15:18.848Z,9.80
2023-03-26T06:19:58.708Z,9.50
2023-03-26T06:24:35.505Z,9.30
2023-03-26T06:29:21.156Z,9.10
2023-03-26T06:34:08.898Z,9.10
2023-03-26T06:38:35.415Z,9.00
2023-03-26T06:43:07.990Z,9.00
2023-03-26T06:48:10.830Z,8.90
2023-03-26T06:52:58.922Z,9.00
2023-03-26T06:57:55.220Z,9.00
2023-03-26T07:02:47.789Z,9.00
2023-03-26T07:07:32.958Z,9.10
2023-03-26T07:12:24.628Z,9.20
2023-03-26T07:16:49.156Z,9.30
2023-03-26T07:21:38.309Z,9.50
2023-03-26T07:26:32.680Z,9.60
2023-03-26T07:31:28.289Z,9.80
2023-03-26T07:36:25.815Z,9.90
2023-03-26T07:41:19.194Z,10.20
2023-03-26T07:46:36.692Z,10.40
2023-03-26T07:51:36.538Z,10.60
2023-03-26T07:56:21.484Z,10.70
2023-03-26T08:01:17.904Z,10.80
2023-03-26T08:05:56.783Z,11.00
2023-03-26T08:11:03.394Z,11.30
2023-03-26T08:15:44.906Z,11.40
2023-03-26T08:20:21.237Z,11.40
2023-03-26T08:25:02.013Z,11.40
2023-03-26T08:29:34.544Z,11.50
2023-03-26T08:33:59.474Z,11.60
2023-03-26T08:38:28.083Z,11.70
2023-03-26T08:43:21.504Z,11.80
2023-03-26T08:48:29.350Z,11.70
2023-03-26T08:53:40.046Z,11.90
2023-03-26T08:58:52.265Z,12.00
2023-03-26T09:03:48.249Z,12.20
2023-03-26T09:09:05.275Z,12.50
2023-03-26T09:14:06.982Z,12.70
2023-03-26T09:19:12.584Z,13.20
2023-03-26T09:24:10.461Z,13.50
2023-03-26T09:29:17.048Z,14.30
2023-03-26T09:34:14.243Z,15.30
2023-03-26T09:38:49.142Z,15.80
2023-03-26T09:43:54.160Z,15.60
2023-03-26T09:48:36.330Z,15.50
2023-03-26T09:53:14.245Z,16.00
2023-03-26T09:58:01.277Z,16.50
2023-03-26T10:02:58.671Z,16.30
2023-03-26T10:07:57.401Z,16.10
2023-03-26T10:12:37.101Z,15.80
2023-03-26T10:17:11.612Z,15.70
2023-03-26T10:21:44.561Z,16.80
2023-03-26T10:26:40.754Z,18.20
2023-03-26T10:31:36.985Z,19.50
2023-03-26T10:36:34.135Z,20.10
2023-03-26T10:41:12.615Z,20.30
2023-03-26T10:45:55.923Z,20.20
2023-03-26T10:50:56.684Z,19.60
2023-03-26T10:55:30.280Z,18.60
2023-03-26T11:00:00.627Z,17.70
2023-03-26T11:04:40.019Z,17.10
2023-03-26T11:09:22.918Z,16.60
2023-03-26T11:13:56.540Z,16.10
2023-03-26T11:18:31.692Z,15.70
2023-03-26T11:23:10.125Z,15.70
2023-03-26T11:27:57.233Z,15.70
2023-03-26T11:32:26.221Z,15.80
2023-03-26T11:36:59.660Z,16.00
2023-03-26T11:41:27.366Z,16.00
2023-03-26T11:46:13.256Z,15.80
2023-03-26T11:50:49.133Z,15.70
2023-03-26T11:55:15.934Z,15.60
2023-03-26T11:59:56.605Z,15.40
2023-03-26T12:04:37.198Z,15.20
2023-03-26T12:09:05.161Z,15.00
2023-03-26T12:13:35.717Z,14.70
2023-03-26T12:18:25.054Z,14.40
2023-03-26T12:22:54.785Z,14.20
2023-03-26T12:27:29.299Z,14.10
2023-03-26T12:32:04.607Z,14.10
2023-03-26T12:36:37.195Z,14.20
2023-03-26T12:44:44.260Z,14.30
2023-03-26T12:47:54.443Z,14.30
2023-03-26T12:50:59.789Z,14.20
2023-03-26T12:55:42.348Z,14.00
2023-03-26T13:00:40.846Z,13.40
2023-03-26T13:05:35.993Z,12.70
2023-03-26T13:10:35.069Z,12.00
2023-03-26T13:15:22.053Z,11.40
2023-03-26T13:19:57.715Z,11.00
2023-03-26T13:24:42.458Z,10.80
2023-03-26T13:29:09.489Z,10.80
2023-03-26T13:33:50.714Z,10.90
2023-03-26T13:38:26.219Z,11.10
2023-03-26T13:42:56.961Z,11.30
2023-03-26T13:47:22.342Z,11.30
2023-03-26T13:51:55.365Z,11.30
2023-03-26T13:56:25.068Z,11.30
2023-03-26T14:00:57.407Z,11.40
2023-03-26T14:05:22.529Z,11.40
2023-03-26T14:09:51.661Z,11.30
2023-03-26T14:14:20.131Z,11.30
2023-03-26T14:18:49.899Z,11.20
2023-03-26T14:23:36.949Z,11.20
2023-03-26T14:28:20.093Z,11.10
2023-03-26T14:33:06.169Z,11.10
2023-03-26T14:37:55.629Z,11.10
2023-03-26T14:42:26.535Z,11.00
2023-03-26T14:47:17.515Z,10.90
2023-03-26T14:52:12.490Z,10.80
2023-03-26T14:57:01.192Z,10.70
2023-03-26T15:01:28.920Z,10.60
2023-03-26T15:06:24.081Z,10.50
2023-03-26T15:11:02.905Z,10.30
2023-03-26T15:16:00.363Z,10.20
2023-03-26T15:20:50.594Z,10.10
2023-03-26T15:25:35.893Z,10.10
2023-03-26T15:30:40.525Z,10.00
2023-03-26T15:35:44.530Z,9.90
2023-03-26T15:40:29.353Z,9.80
2023-03-26T15:45:08.311Z,9.80
2023-03-26T15:49:43.061Z,9.70
2023-03-26T15:54:10.217Z,9.70
2023-03-26T15:58:40.106Z,9.70
2023-03-26T16:03:22.978Z,9.60
2023-03-26T16:08:03.548Z,9.50
2023-03-26T16:12:39.637Z,9.50
2023-03-26T16:17:03.960Z,9.40
2023-03-26T16:21:57.614Z,9.30
2023-03-26T16:26:32.018Z,9.20
2023-03-26T16:31:38.869Z,9.20
2023-03-26T16:36:19.498Z,9.10
2023-03-26T16:41:03.264Z,9.00
2023-03-26T16:45:30.810Z,9.00
2023-03-26T16:50:08.116Z,8.90
2023-03-26T16:54:46.611Z,8.90
2023-03-26T16:59:18.398Z,8.70
2023-03-26T17:03:46.178Z,8.60
2023-03-26T17:08:14.331Z,8.50
2023-03-26T17:12:46.072Z,8.50
2023-03-26T17:17:25.923Z,8.30
2023-03-26T17:22:07.903Z,8.20
2023-03-26T17:26:35.214Z,8.10
2023-03-26T17:31:09.365Z,8.10
2023-03-26T17:35:43.999Z,8.00
2023-03-26T17:40:52.029Z,7.90
2023-03-26T17:45:18.592Z,7.90
2023-03-26T17:49:49.685Z,7.80
2023-03-26T17:54:26.477Z,7.70
2023-03-26T17:58:50.295Z,7.70
2023-03-26T18:03:19.518Z,7.70
2023-03-26T18:08:28.429Z,7.70
2023-03-26T18:13:07.468Z,7.70
2023-03-26T18:17:28.895Z,7.70
2023-03-26T18:21:52.139Z,7.70
2023-03-26T18:26:18.457Z,7.70
2023-03-26T18:30:49.115Z,7.70
2023-03-26T18:35:21.087Z,7.70
2023-03-26T18:39:40.399Z,7.70
2023-03-26T18:44:07.972Z,7.80
2023-03-26T18:48:31.087Z,7.80
2023-03-26T18:52:52.043Z,7.80
2023-03-26T18:57:15.389Z,7.90
2023-03-26T19:01:38.781Z,7.90
2023-03-26T19:06:04.725Z,7.90
2023-03-26T19:10:28.507Z,8.00
2023-03-26T19:14:58.091Z,8.00
2023-03-26T19:19:23.648Z,8.00
2023-03-26T19:23:45.650Z,8.00
2023-03-26T19:28:14.308Z,8.00
2023-03-26T19:32:34.963Z,8.00
2023-03-26T19:36:59.539Z,7.90
2023-03-26T19:41:23.381Z,7.90
2023-03-26T19:45:59.962Z,7.90
2023-03-26T19:50:26.950Z,7.80
2023-03-26T19:54:59.908Z,7.80
2023-03-26T19:59:22.600Z,7.80
2023-03-26T20:03:44.496Z,7.80
2023-03-26T20:08:17.456Z,7.80
2023-03-26T20:12:39.046Z,7.80
2023-03-26T20:16:56.805Z,7.80
2023-03-26T20:21:15.225Z,7.80
2023-03-26T20:25:35.878Z,7.80
2023-03-26T20:29:57.784Z,7.80
2023-03-26T20:34:18.672Z,7.70
2023-03-26T20:38:39.419Z,7.70
2023-03-26T20:42:57.214Z,7.70
2023-03-26T20:47:16.472Z,7.70
2023-03-26T20:51:38.110Z,7.70
2023-03-26T20:55:57.555Z,7.60
2023-03-26T21:00:19.303Z,7.60
2023-03-26T21:04:37.949Z,7.60
2023-03-26T21:09:17.623Z,7.60
2023-03-26T21:14:09.392Z,7.60
2023-03-26T21:18:30.159Z,7.60
2023-03-26T21:27:33.790Z,7.60
2023-03-26T21:31:53.995Z,7.50
2023-03-26T21:36:13.403Z,7.50
2023-03-26T21:40:35.472Z,7.50
2023-03-26T21:44:54.672Z,7.50
2023-03-26T21:49:13.488Z,7.50
2023-03-26T21:53:35.822Z,7.50
2023-03-26T21:58:23.115Z,7.40
2023-03-26T22:02:57.306Z,7.40
2023-03-26T22:07:20.904Z,7.40
2023-03-26T22:11:37.903Z,7.40
2023-03-26T22:15:57.662Z,7.30
2023-03-26T22:20:20.152Z,7.30
2023-03-26T22:24:40.654Z,7.20
2023-03-26T22:29:02.278Z,7.20
2023-03-26T22:33:22.606Z,7.10
2023-03-26T22:37:42.080Z,7.10
2023-03-26T22:42:02.152Z,7.10
2023-03-26T22:46:21.217Z,7.10
2023-03-26T22:50:41.149Z,7.00
2023-03-26T22:55:00.041Z,7.00
2023-03-26T22:59:18.735Z,6.90
2023-03-26T23:03:36.926Z,6.90
2023-03-26T23:07:56.005Z,6.80
2023-03-26T23:12:15.656Z,6.70
2023-03-26T23:16:33.330Z,6.50
2023-03-26T23:20:52.897Z,6.40
2023-03-26T23:25:14.216Z,6.30
2023-03-26T23:29:34.385Z,6.10
2023-03-26T23:33:51.779Z,6.00
2023-03-26T23:38:13.005Z,5.90
2023-03-26T23:42:34.562Z,5.80
2023-03-26T23:46:57.897Z,5.70
2023-03-26T23:51:18.340Z,5.60
2023-03-26T23:55:38.018Z,5.50
2023-03-26T23:59:57.293Z,5.40
